Time;durP1;ratioP1;P1;durP2;ratioP2;P2;SDS_P1;SDS_P2;PMS_P1;PMS_P2;Temp;Humidity;BMP_temperature;BMP_pressure;BME280_temperature;BME280_humidity;BME280_pressure;Samples;Min_cycle;Max_cycle;Signal;HPM_P1;HPM_P2
2021/01/05 00:00:16;;;;;;;7.53;5.57;;;3.70;99.90;;;;;;5080633;28;20175;-81
2021/01/05 00:02:42;;;;;;;9.00;5.90;;;3.70;99.90;;;;;;5081132;28;20586;-81
2021/01/05 00:05:08;;;;;;;10.20;6.17;;;3.70;99.90;;;;;;5080757;28;20445;-82
2021/01/05 00:07:34;;;;;;;8.00;6.20;;;3.70;99.90;;;;;;5081523;28;20196;-82
2021/01/05 00:09:59;;;;;;;8.40;5.90;;;3.70;99.90;;;;;;5080514;28;20409;-82
2021/01/05 00:12:26;;;;;;;5.53;4.50;;;3.70;99.90;;;;;;5081176;28;20164;-82
2021/01/05 00:14:52;;;;;;;11.83;6.03;;;3.70;99.90;;;;;;5081905;28;20206;-82
2021/01/05 00:17:20;;;;;;;10.03;7.37;;;3.70;99.90;;;;;;5082096;28;20897;-82
2021/01/05 00:19:47;;;;;;;9.23;6.33;;;3.70;99.90;;;;;;5081762;28;20988;-82
2021/01/05 00:22:13;;;;;;;9.67;4.93;;;3.70;99.90;;;;;;5080772;28;20455;-83
2021/01/05 00:24:40;;;;;;;9.33;5.20;;;3.70;99.90;;;;;;5080877;28;20476;-83
2021/01/05 00:27:06;;;;;;;11.70;6.27;;;3.70;99.90;;;;;;5066085;28;20475;-83
2021/01/05 00:29:32;;;;;;;5.93;4.10;;;3.70;99.90;;;;;;5084134;28;20410;-81
2021/01/05 00:32:16;;;;;;;15.20;4.43;;;3.80;99.90;;;;;;5101875;28;20484;-80
2021/01/05 00:34:43;;;;;;;5.00;4.47;;;3.70;99.90;;;;;;5103889;28;20432;-82
2021/01/05 00:37:10;;;;;;;10.60;5.67;;;3.70;99.90;;;;;;5102258;28;20444;-82
2021/01/05 00:39:36;;;;;;;10.50;5.40;;;3.70;99.90;;;;;;5101885;28;20393;-81
2021/01/05 00:42:02;;;;;;;7.47;5.80;;;3.70;99.90;;;;;;5102602;28;20433;-82
2021/01/05 00:44:27;;;;;;;7.73;6.10;;;3.70;99.90;;;;;;5103481;28;20170;-81
2021/01/05 00:46:53;;;;;;;7.33;4.97;;;3.80;99.90;;;;;;5085117;28;20492;-82
2021/01/05 00:49:19;;;;;;;11.27;7.23;;;3.80;99.90;;;;;;5102393;28;20591;-83
2021/01/05 00:51:45;;;;;;;7.60;5.67;;;3.80;99.90;;;;;;5103817;28;20159;-81
2021/01/05 00:54:13;;;;;;;11.17;6.00;;;3.80;99.90;;;;;;5102671;28;20190;-80
2021/01/05 00:56:39;;;;;;;8.30;6.50;;;3.80;99.90;;;;;;5068633;28;20454;-82
2021/01/05 00:59:05;;;;;;;9.20;5.60;;;3.80;99.90;;;;;;5103027;28;20449;-82
2021/01/05 01:01:30;;;;;;;6.40;4.80;;;3.80;99.90;;;;;;5103885;28;20154;-83
2021/01/05 01:03:57;;;;;;;7.37;5.67;;;3.80;99.90;;;;;;5103650;28;20162;-82
2021/01/05 01:06:23;;;;;;;9.40;6.47;;;3.80;99.90;;;;;;5104840;28;20314;-82
2021/01/05 01:08:48;;;;;;;9.27;5.93;;;3.70;99.90;;;;;;5104695;28;20371;-83
2021/01/05 01:11:14;;;;;;;10.03;4.77;;;3.70;99.90;;;;;;5104316;28;20380;-83
2021/01/05 01:13:40;;;;;;;8.93;5.60;;;3.70;99.90;;;;;;5104485;28;20162;-82
2021/01/05 01:16:08;;;;;;;13.70;6.90;;;3.60;99.90;;;;;;5104862;28;20855;-83
2021/01/05 01:18:34;;;;;;;10.30;5.27;;;3.60;99.90;;;;;;5105398;28;20394;-83
2021/01/05 01:21:01;;;;;;;10.00;6.07;;;3.60;99.90;;;;;;5101434;28;20936;-82
2021/01/05 01:23:27;;;;;;;5.27;4.77;;;3.70;99.90;;;;;;5104585;28;20397;-83
2021/01/05 01:25:53;;;;;;;6.93;5.10;;;3.70;99.90;;;;;;5104261;28;20788;-83
2021/01/05 01:28:19;;;;;;;10.70;6.27;;;3.70;99.90;;;;;;5122863;28;20225;-83
2021/01/05 01:30:47;;;;;;;8.90;5.50;;;3.70;99.90;;;;;;5126057;28;20426;-83
2021/01/05 01:33:13;;;;;;;8.63;6.63;;;3.70;99.90;;;;;;5107797;28;20173;-83
2021/01/05 01:35:39;;;;;;;9.73;5.70;;;3.70;99.90;;;;;;5124220;28;20489;-83
2021/01/05 01:38:05;;;;;;;7.30;5.37;;;3.70;99.90;;;;;;5126255;28;20400;-83
2021/01/05 01:40:41;;;;;;;8.73;5.67;;;3.70;99.90;;;;;;5127768;28;20688;-83
2021/01/05 01:43:07;;;;;;;5.17;4.67;;;3.80;99.90;;;;;;5126688;28;20460;-83
2021/01/05 01:45:34;;;;;;;7.93;4.80;;;3.80;99.90;;;;;;5126576;28;20742;-83
2021/01/05 01:48:03;;;;;;;9.90;6.07;;;3.70;99.90;;;;;;5134157;28;20408;-83
2021/01/05 01:50:31;;;;;;;8.00;4.40;;;3.70;99.90;;;;;;5139581;28;20421;-82
2021/01/05 01:53:18;;;;;;;16.60;5.40;;;3.70;99.90;;;;;;5139863;28;20407;-81
2021/01/05 01:56:23;;;;;;;7.53;6.00;;;3.70;99.90;;;;;;5124043;27;20462;-81
2021/01/05 01:59:16;;;;;;;7.07;5.57;;;3.70;99.90;;;;;;5124322;28;20454;-83
2021/01/05 02:01:59;;;;;;;7.57;5.70;;;3.70;99.90;;;;;;5139089;28;20429;-82
2021/01/05 02:04:54;;;;;;;6.93;5.07;;;3.70;99.90;;;;;;5115176;28;20447;-82
2021/01/05 02:07:47;;;;;;;8.03;6.30;;;3.60;99.90;;;;;;5125310;27;20409;-82
2021/01/05 02:10:46;;;;;;;8.13;5.17;;;3.60;99.90;;;;;;5140271;27;20416;-82
2021/01/05 02:13:35;;;;;;;6.40;5.00;;;3.60;99.90;;;;;;5133447;27;20404;-82
2021/01/05 02:16:32;;;;;;;11.67;6.73;;;3.60;99.90;;;;;;5109355;28;20390;-82
2021/01/05 02:19:33;;;;;;;9.33;5.87;;;3.70;99.90;;;;;;5127542;28;20420;-80
2021/01/05 02:22:20;;;;;;;5.83;4.70;;;3.70;99.90;;;;;;5110015;28;20425;-82
2021/01/05 02:24:58;;;;;;;10.13;5.67;;;3.70;99.90;;;;;;5130791;28;20460;-82
2021/01/05 02:27:24;;;;;;;7.57;5.90;;;3.70;99.90;;;;;;5125755;28;20410;-82
2021/01/05 02:29:56;;;;;;;6.97;4.97;;;3.60;99.90;;;;;;5107161;28;20472;-82
2021/01/05 02:32:46;;;;;;;8.03;5.67;;;3.70;99.90;;;;;;5125654;28;20699;-82
2021/01/05 02:35:45;;;;;;;9.57;5.93;;;3.70;99.90;;;;;;5128288;28;20425;-82
2021/01/05 02:38:48;;;;;;;7.43;5.30;;;3.70;99.90;;;;;;5129476;27;20392;-81
2021/01/05 02:41:48;;;;;;;7.37;4.30;;;3.70;99.90;;;;;;5139456;27;20410;-82
2021/01/05 02:44:30;;;;;;;10.93;4.07;;;3.70;99.90;;;;;;5128751;28;20378;-83
2021/01/05 02:47:05;;;;;;;11.33;4.97;;;3.70;99.90;;;;;;5127286;28;20396;-82
2021/01/05 02:49:39;;;;;;;7.93;5.33;;;3.70;99.90;;;;;;5127024;28;20398;-82
2021/01/05 02:52:32;;;;;;;8.23;5.73;;;3.70;99.90;;;;;;5128792;28;20406;-82
2021/01/05 02:55:25;;;;;;;7.57;6.07;;;3.70;99.90;;;;;;5108918;28;20402;-83
2021/01/05 02:58:14;;;;;;;6.10;4.67;;;3.70;99.90;;;;;;5129059;28;20408;-82
2021/01/05 03:01:19;;;;;;;7.80;4.73;;;3.80;99.90;;;;;;5128223;28;20387;-81
2021/01/05 03:03:46;;;;;;;7.03;3.80;;;3.70;99.90;;;;;;5127003;28;20794;-82
2021/01/05 03:06:35;;;;;;;5.80;5.20;;;3.70;99.90;;;;;;5128286;28;20449;-80
2021/01/05 03:09:26;;;;;;;5.60;4.73;;;3.80;99.90;;;;;;5133446;28;20350;-82
2021/01/05 03:12:31;;;;;;;8.07;5.70;;;3.70;99.90;;;;;;5116328;28;20396;-83
2021/01/05 03:15:15;;;;;;;9.80;3.83;;;3.70;99.90;;;;;;5101456;28;20461;-84
2021/01/05 03:17:55;;;;;;;7.30;4.33;;;3.80;99.90;;;;;;5111055;28;20388;-83
2021/01/05 03:20:42;;;;;;;5.73;4.30;;;3.80;99.90;;;;;;5128323;28;20482;-83
2021/01/05 03:23:11;;;;;;;4.83;3.50;;;3.80;99.90;;;;;;5133628;28;20410;-80
2021/01/05 03:25:41;;;;;;;4.27;3.70;;;3.80;99.90;;;;;;5120431;28;20381;-80
2021/01/05 03:28:11;;;;;;;5.43;4.60;;;3.80;99.90;;;;;;5138129;27;20435;-80
2021/01/05 03:30:47;;;;;;;4.40;3.87;;;3.90;99.90;;;;;;5138042;27;20402;-82
2021/01/05 03:33:14;;;;;;;7.80;4.90;;;3.90;99.90;;;;;;5128788;28;20415;-82
2021/01/05 03:35:41;;;;;;;7.07;4.73;;;3.90;99.90;;;;;;5110273;28;20440;-82
2021/01/05 03:38:07;;;;;;;8.10;4.40;;;3.80;99.90;;;;;;5127186;28;20389;-82
2021/01/05 03:40:34;;;;;;;6.70;3.90;;;3.80;99.90;;;;;;5109952;28;20391;-82
2021/01/05 03:43:00;;;;;;;5.23;4.00;;;3.80;99.90;;;;;;5130033;28;20169;-83
2021/01/05 03:45:31;;;;;;;6.23;5.00;;;3.80;99.90;;;;;;5112074;28;20396;-83
2021/01/05 03:47:57;;;;;;;6.90;4.80;;;3.80;99.90;;;;;;5118214;28;20154;-82
2021/01/05 03:50:24;;;;;;;8.40;3.63;;;3.90;99.90;;;;;;5138295;28;20408;-83
2021/01/05 03:52:50;;;;;;;4.43;4.00;;;3.90;99.90;;;;;;5112429;28;20416;-83
2021/01/05 03:55:17;;;;;;;8.70;4.57;;;3.90;99.90;;;;;;5129124;28;20531;-82
2021/01/05 03:57:44;;;;;;;5.27;4.20;;;3.90;99.90;;;;;;5111147;28;20404;-83
2021/01/05 04:00:18;;;;;;;4.53;4.03;;;3.90;99.90;;;;;;5128175;28;20366;-83
2021/01/05 04:02:45;;;;;;;9.80;4.20;;;3.90;99.90;;;;;;5126900;28;20769;-83
2021/01/05 04:05:13;;;;;;;6.57;3.73;;;3.90;99.90;;;;;;5128364;28;20458;-83
2021/01/05 04:07:40;;;;;;;3.97;3.43;;;3.90;99.90;;;;;;5127942;28;20367;-83
2021/01/05 04:10:06;;;;;;;4.17;3.77;;;3.90;99.90;;;;;;5129638;28;20417;-82
2021/01/05 04:12:32;;;;;;;3.63;2.70;;;3.90;99.90;;;;;;5130816;28;20423;-82
2021/01/05 04:14:58;;;;;;;4.30;3.90;;;3.90;99.90;;;;;;5128255;28;20431;-83
2021/01/05 04:17:24;;;;;;;3.63;3.27;;;3.90;99.90;;;;;;5112754;28;20458;-83
2021/01/05 04:19:50;;;;;;;4.00;3.60;;;3.90;99.90;;;;;;5110797;28;20194;-82
2021/01/05 04:22:15;;;;;;;3.70;2.93;;;3.90;99.90;;;;;;5128333;28;20162;-82
2021/01/05 04:24:41;;;;;;;4.20;3.07;;;3.90;99.90;;;;;;5128687;28;20166;-83
2021/01/05 04:27:07;;;;;;;4.00;3.70;;;4.00;99.90;;;;;;5111362;28;20232;-82
2021/01/05 04:29:33;;;;;;;4.50;3.43;;;4.00;99.90;;;;;;5129783;28;20162;-83
2021/01/05 04:31:58;;;;;;;5.60;4.03;;;4.00;99.90;;;;;;5128919;28;20162;-83
2021/01/05 04:34:24;;;;;;;3.20;2.90;;;4.00;99.90;;;;;;5095524;28;20560;-82
2021/01/05 04:36:50;;;;;;;5.40;3.40;;;3.90;99.90;;;;;;5130999;28;20158;-83
2021/01/05 04:39:16;;;;;;;3.50;3.20;;;3.90;99.90;;;;;;5133348;28;20170;-83
2021/01/05 04:41:57;;;;;;;5.23;3.27;;;3.90;99.90;;;;;;5135853;28;20155;-83
2021/01/05 04:44:25;;;;;;;5.80;3.23;;;3.90;99.90;;;;;;5140106;27;20209;-81
2021/01/05 04:47:01;;;;;;;3.27;3.00;;;4.00;99.90;;;;;;5123073;28;20415;-81
2021/01/05 04:49:51;;;;;;;6.10;3.50;;;4.00;99.90;;;;;;5137656;27;20410;-83
2021/01/05 04:52:21;;;;;;;4.37;3.40;;;3.90;99.90;;;;;;5130345;28;20392;-82
2021/01/05 04:54:54;;;;;;;8.70;3.93;;;3.90;99.90;;;;;;5130599;28;20494;-81
2021/01/05 04:57:30;;;;;;;3.97;3.67;;;3.90;99.90;;;;;;5113900;28;20889;-82
2021/01/05 05:00:11;;;;;;;3.93;3.50;;;3.90;99.90;;;;;;5112468;28;20471;-81
2021/01/05 05:02:50;;;;;;;4.40;3.37;;;3.90;99.90;;;;;;5132188;28;20383;-82
2021/01/05 05:05:39;;;;;;;5.90;4.00;;;4.00;99.90;;;;;;5132195;28;20400;-81
2021/01/05 05:08:24;;;;;;;3.60;2.80;;;4.00;99.90;;;;;;5128967;28;20483;-82
2021/01/05 05:10:56;;;;;;;6.20;4.00;;;3.90;99.90;;;;;;5130321;28;20389;-82
2021/01/05 05:13:44;;;;;;;4.23;3.83;;;3.90;99.90;;;;;;5111446;28;20459;-82
2021/01/05 05:16:36;;;;;;;4.03;3.23;;;3.90;99.90;;;;;;5133576;28;20379;-82
2021/01/05 05:19:24;;;;;;;4.70;3.53;;;4.00;99.90;;;;;;5132631;28;20391;-82
2021/01/05 05:22:24;;;;;;;4.30;3.20;;;4.00;99.90;;;;;;5115639;28;20371;-83
2021/01/05 05:24:57;;;;;;;6.70;4.23;;;4.00;99.90;;;;;;5129644;28;20509;-83
2021/01/05 05:27:44;;;;;;;4.93;4.47;;;4.00;99.90;;;;;;5108174;28;20456;-82
2021/01/05 05:30:17;;;;;;;4.77;3.80;;;4.10;99.90;;;;;;5111525;28;20396;-82
2021/01/05 05:32:49;;;;;;;5.17;4.10;;;4.10;99.90;;;;;;5109172;28;20435;-82
2021/01/05 05:35:47;;;;;;;4.70;4.27;;;4.10;99.90;;;;;;5108245;28;20540;-82
2021/01/05 05:38:48;;;;;;;5.57;3.80;;;4.10;99.90;;;;;;5110179;28;20499;-83
2021/01/05 05:41:45;;;;;;;5.67;3.60;;;4.00;99.90;;;;;;5110994;28;20408;-82
2021/01/05 05:44:24;;;;;;;3.80;3.47;;;4.00;99.90;;;;;;5111038;28;20371;-81
2021/01/05 05:47:05;;;;;;;3.73;3.40;;;4.00;99.90;;;;;;5107889;28;20500;-81
2021/01/05 05:49:50;;;;;;;3.33;2.50;;;4.00;99.90;;;;;;5112251;28;20453;-80
2021/01/05 05:52:50;;;;;;;4.43;3.90;;;3.90;99.90;;;;;;5115195;28;20393;-79
2021/01/05 05:55:36;;;;;;;6.10;3.10;;;3.90;99.90;;;;;;5109949;28;20785;-82
2021/01/05 05:58:03;;;;;;;3.63;2.47;;;3.80;99.90;;;;;;5109728;28;20405;-82
2021/01/05 06:00:37;;;;;;;5.27;3.80;;;3.80;99.90;;;;;;5108755;28;20377;-82
2021/01/05 06:03:06;;;;;;;3.33;3.03;;;3.80;99.90;;;;;;5107983;28;20603;-82
2021/01/05 06:05:35;;;;;;;2.60;2.40;;;3.80;99.90;;;;;;5110307;28;20410;-82
2021/01/05 06:08:04;;;;;;;3.20;2.67;;;3.80;99.90;;;;;;5109951;28;20374;-82
2021/01/05 06:10:30;;;;;;;4.43;2.93;;;3.80;99.90;;;;;;5107196;28;20371;-82
2021/01/05 06:12:56;;;;;;;2.93;2.63;;;3.80;99.90;;;;;;5106729;28;20395;-80
2021/01/05 06:15:22;;;;;;;2.90;2.70;;;3.80;99.90;;;;;;5107199;28;20194;-82
2021/01/05 06:17:48;;;;;;;3.10;2.87;;;3.70;99.90;;;;;;5106302;28;20482;-81
2021/01/05 06:20:15;;;;;;;2.90;2.70;;;3.70;99.90;;;;;;5106841;28;20437;-82
2021/01/05 06:22:40;;;;;;;8.17;3.90;;;3.60;99.90;;;;;;5107807;28;20427;-82
2021/01/05 06:25:08;;;;;;;5.43;3.80;;;3.70;99.90;;;;;;5098177;28;20492;-81
2021/01/05 06:27:33;;;;;;;3.00;2.53;;;3.70;99.90;;;;;;5117710;28;20225;-82
2021/01/05 06:29:59;;;;;;;2.90;2.67;;;3.70;99.90;;;;;;5128566;28;20465;-80
2021/01/05 06:32:25;;;;;;;4.80;2.90;;;3.80;99.90;;;;;;5111398;28;20392;-81
2021/01/05 06:34:51;;;;;;;3.83;2.90;;;3.80;99.90;;;;;;5128617;28;20198;-82
2021/01/05 06:37:18;;;;;;;5.90;3.40;;;3.90;99.90;;;;;;5126871;28;20475;-82
2021/01/05 06:39:44;;;;;;;3.57;3.27;;;3.90;99.90;;;;;;5127717;28;20539;-81
2021/01/05 06:42:10;;;;;;;5.13;3.47;;;3.90;99.90;;;;;;5129137;28;20419;-82
2021/01/05 06:44:36;;;;;;;4.67;2.90;;;3.90;99.90;;;;;;5128957;28;20419;-82
2021/01/05 06:47:02;;;;;;;4.53;2.97;;;3.90;99.90;;;;;;5127857;28;20407;-82
2021/01/05 06:49:29;;;;;;;3.20;2.60;;;3.90;99.90;;;;;;5110605;28;20419;-80
2021/01/05 06:51:56;;;;;;;3.90;2.80;;;3.90;99.90;;;;;;5129014;28;20448;-82
2021/01/05 06:54:22;;;;;;;2.83;2.60;;;3.90;99.90;;;;;;5075768;28;20507;-82
2021/01/05 06:56:51;;;;;;;2.80;2.60;;;3.90;99.90;;;;;;5126354;28;20384;-82
2021/01/05 06:59:17;;;;;;;4.10;3.03;;;3.90;99.90;;;;;;5107466;28;20395;-82
2021/01/05 07:01:51;;;;;;;4.77;4.30;;;3.90;99.90;;;;;;5110087;28;20388;-82
2021/01/05 07:04:17;;;;;;;8.57;4.20;;;3.90;99.90;;;;;;5126237;28;20400;-82
2021/01/05 07:06:43;;;;;;;4.87;3.47;;;3.90;99.90;;;;;;5127759;28;20396;-82
2021/01/05 07:09:09;;;;;;;4.10;3.30;;;3.90;99.90;;;;;;5126414;28;20479;-82
2021/01/05 07:11:35;;;;;;;2.47;2.27;;;3.90;99.90;;;;;;5129375;28;20407;-80
2021/01/05 07:14:01;;;;;;;3.77;3.10;;;3.80;99.90;;;;;;5109205;28;20492;-82
2021/01/05 07:16:26;;;;;;;3.20;2.90;;;3.80;99.90;;;;;;5104057;28;20158;-81
2021/01/05 07:18:52;;;;;;;3.37;2.83;;;3.80;99.90;;;;;;5119797;28;20170;-81
2021/01/05 07:21:18;;;;;;;2.33;2.13;;;3.80;99.90;;;;;;5107037;28;20194;-82
2021/01/05 07:23:44;;;;;;;5.00;3.23;;;3.90;99.90;;;;;;5111429;28;20241;-82
2021/01/05 07:26:09;;;;;;;3.63;3.13;;;3.90;99.90;;;;;;5128004;28;20162;-82
2021/01/05 07:28:40;;;;;;;2.50;2.33;;;3.80;99.90;;;;;;5096808;28;20196;-82
2021/01/05 07:31:06;;;;;;;3.07;2.87;;;3.90;99.90;;;;;;5128459;28;20146;-82
2021/01/05 07:33:32;;;;;;;2.83;2.57;;;3.90;99.90;;;;;;5125587;28;20410;-81
2021/01/05 07:36:01;;;;;;;5.60;3.70;;;3.90;99.90;;;;;;5129940;28;20562;-81
2021/01/05 07:38:27;;;;;;;5.07;2.40;;;4.00;99.90;;;;;;5129855;28;20178;-81
2021/01/05 07:40:54;;;;;;;8.00;3.07;;;4.00;99.90;;;;;;5127094;28;20401;-80
2021/01/05 07:43:19;;;;;;;4.43;3.90;;;3.90;99.90;;;;;;5127048;28;20170;-82
2021/01/05 07:45:45;;;;;;;4.87;3.30;;;4.00;99.90;;;;;;5127499;28;20408;-82
2021/01/05 07:48:13;;;;;;;3.23;3.00;;;3.90;99.90;;;;;;5108233;28;20601;-83
2021/01/05 07:50:39;;;;;;;3.20;3.00;;;4.00;99.90;;;;;;5107970;28;20809;-80
2021/01/05 07:53:04;;;;;;;6.90;4.20;;;4.00;99.90;;;;;;5128699;28;20888;-82
2021/01/05 07:55:32;;;;;;;3.70;3.10;;;3.90;99.90;;;;;;5127408;28;20425;-81
2021/01/05 07:57:59;;;;;;;4.40;2.50;;;3.90;99.90;;;;;;5084997;28;20241;-82
2021/01/05 08:00:27;;;;;;;3.73;3.53;;;4.00;99.90;;;;;;5085423;28;20433;-82
2021/01/05 08:02:54;;;;;;;3.43;2.50;;;3.90;99.90;;;;;;5079939;28;20467;-82
2021/01/05 08:05:23;;;;;;;3.33;3.03;;;3.90;99.90;;;;;;5083877;28;20437;-82
2021/01/05 08:07:49;;;;;;;8.03;5.10;;;4.00;99.90;;;;;;5086118;28;20861;-83
2021/01/05 08:10:35;;;;;;;4.67;4.20;;;4.00;99.90;;;;;;5087615;28;20408;-83
2021/01/05 08:13:05;;;;;;;2.97;2.67;;;4.00;99.90;;;;;;5087639;28;20399;-81
2021/01/05 08:15:31;;;;;;;6.23;3.90;;;4.00;99.90;;;;;;5067185;28;20463;-82
2021/01/05 08:17:57;;;;;;;4.20;3.67;;;4.00;99.90;;;;;;5071253;28;20388;-81
2021/01/05 08:20:26;;;;;;;4.63;2.80;;;4.00;99.90;;;;;;5073720;28;20195;-82
2021/01/05 08:22:52;;;;;;;7.30;4.17;;;4.00;99.90;;;;;;5067388;28;20536;-81
2021/01/05 08:25:20;;;;;;;12.43;4.70;;;4.00;99.90;;;;;;5065418;28;20496;-82
2021/01/05 08:27:48;;;;;;;3.30;3.10;;;4.00;99.90;;;;;;5090497;28;20454;-83
2021/01/05 08:30:26;;;;;;;5.43;4.30;;;4.00;99.90;;;;;;5111735;28;20981;-82
2021/01/05 08:32:57;;;;;;;5.90;4.30;;;4.00;99.90;;;;;;5117240;28;20426;-81
2021/01/05 08:35:24;;;;;;;5.40;4.50;;;4.00;99.90;;;;;;5113763;28;20531;-83
2021/01/05 08:37:50;;;;;;;3.50;3.20;;;4.10;99.90;;;;;;5133217;28;20472;-83
2021/01/05 08:40:19;;;;;;;9.57;5.47;;;4.10;99.90;;;;;;5130428;28;20404;-83
2021/01/05 08:42:45;;;;;;;4.13;3.73;;;4.10;99.90;;;;;;5131585;28;20494;-82
2021/01/05 08:45:12;;;;;;;5.87;3.77;;;4.20;99.90;;;;;;5112214;28;20371;-82
2021/01/05 08:47:38;;;;;;;5.07;3.70;;;4.10;99.90;;;;;;5128426;28;20253;-81
2021/01/05 08:50:07;;;;;;;7.27;4.57;;;4.10;99.90;;;;;;5116221;28;20411;-81
2021/01/05 08:52:33;;;;;;;5.23;3.67;;;4.20;99.90;;;;;;5132127;28;20231;-83
2021/01/05 08:54:59;;;;;;;9.03;4.03;;;4.20;99.90;;;;;;5130954;28;20455;-83
2021/01/05 08:57:24;;;;;;;7.37;3.93;;;4.20;99.90;;;;;;5112978;28;20173;-82
2021/01/05 08:59:50;;;;;;;4.53;4.20;;;4.20;99.90;;;;;;5132392;28;20177;-83
2021/01/05 09:02:16;;;;;;;4.40;4.07;;;4.30;99.90;;;;;;5140571;27;20179;-82
2021/01/05 09:04:42;;;;;;;8.73;4.67;;;4.30;99.90;;;;;;5119302;28;20216;-83
2021/01/05 09:07:09;;;;;;;5.60;4.50;;;4.20;99.90;;;;;;5112690;28;20245;-83
2021/01/05 09:09:35;;;;;;;7.47;5.27;;;4.30;99.90;;;;;;5135585;27;20178;-83
2021/01/05 09:12:01;;;;;;;5.27;4.43;;;4.40;99.90;;;;;;5115191;28;20466;-84
2021/01/05 09:14:26;;;;;;;3.73;3.10;;;4.40;99.90;;;;;;5113740;28;20448;-83
2021/01/05 09:16:58;;;;;;;5.30;2.70;;;4.40;99.90;;;;;;5141168;27;20166;-83
2021/01/05 09:19:24;;;;;;;4.90;3.67;;;4.10;99.90;;;;;;5138749;28;20418;-81
2021/01/05 09:21:49;;;;;;;3.33;3.13;;;4.00;99.90;;;;;;5102225;28;20441;-81
2021/01/05 09:24:15;;;;;;;6.03;4.87;;;3.80;99.90;;;;;;5097560;28;20401;-83
2021/01/05 09:26:42;;;;;;;2.70;2.50;;;4.00;99.90;;;;;;5101500;28;20215;-83
2021/01/05 09:29:10;;;;;;;4.77;4.20;;;4.00;99.90;;;;;;5103975;28;20444;-82
2021/01/05 09:31:41;;;;;;;7.20;5.03;;;4.20;99.90;;;;;;5099258;28;20419;-83
2021/01/05 09:34:07;;;;;;;5.73;4.10;;;4.40;99.90;;;;;;5096384;28;20410;-83
2021/01/05 09:36:34;;;;;;;6.50;4.50;;;4.40;99.90;;;;;;5129040;28;20396;-83
2021/01/05 09:39:03;;;;;;;7.17;5.37;;;4.50;99.90;;;;;;5113044;28;20908;-82
2021/01/05 09:41:36;;;;;;;5.73;4.43;;;4.60;99.90;;;;;;5129513;28;20563;-83
2021/01/05 09:44:03;;;;;;;6.50;4.83;;;4.30;99.90;;;;;;5131230;28;20392;-83
2021/01/05 09:46:29;;;;;;;5.20;4.20;;;4.40;99.90;;;;;;5113159;28;20481;-82
2021/01/05 09:48:59;;;;;;;7.43;4.43;;;4.50;99.90;;;;;;5073402;28;20393;-83
2021/01/05 09:51:29;;;;;;;3.93;3.63;;;4.60;99.90;;;;;;5092038;28;20412;-83
2021/01/05 09:53:55;;;;;;;5.47;4.50;;;4.40;99.90;;;;;;5086301;28;20425;-83
2021/01/05 09:56:21;;;;;;;4.80;4.40;;;4.70;99.90;;;;;;5085139;28;20956;-83
2021/01/05 09:58:49;;;;;;;6.97;4.80;;;4.50;99.90;;;;;;5091743;28;20421;-83
2021/01/05 10:01:22;;;;;;;8.00;5.13;;;4.80;99.90;;;;;;5090144;28;20309;-83
2021/01/05 10:03:47;;;;;;;4.83;3.77;;;4.90;99.90;;;;;;5085047;28;20540;-84
2021/01/05 10:06:13;;;;;;;7.80;5.43;;;4.80;99.90;;;;;;5087938;28;20402;-83
2021/01/05 10:08:39;;;;;;;6.93;4.13;;;4.60;99.90;;;;;;5089580;28;20175;-83
2021/01/05 10:11:05;;;;;;;6.10;4.63;;;4.30;99.90;;;;;;5056472;28;20186;-83
2021/01/05 10:13:31;;;;;;;6.30;4.37;;;4.60;99.90;;;;;;5057369;28;20193;-83
2021/01/05 10:15:56;;;;;;;15.63;8.10;;;4.20;99.90;;;;;;5066614;28;20517;-83
2021/01/05 10:18:22;;;;;;;13.27;8.03;;;4.50;99.90;;;;;;5070813;28;20187;-83
2021/01/05 10:20:49;;;;;;;6.80;4.87;;;5.00;99.90;;;;;;5127392;28;20212;-83
2021/01/05 10:23:15;;;;;;;4.43;3.87;;;5.30;99.90;;;;;;5111370;28;20178;-83
2021/01/05 10:25:41;;;;;;;7.10;4.73;;;5.30;99.90;;;;;;5111570;28;20408;-83
2021/01/05 10:28:07;;;;;;;11.07;8.87;;;5.60;99.90;;;;;;5129989;28;20438;-84
2021/01/05 10:30:33;;;;;;;6.87;5.33;;;6.10;99.90;;;;;;5138009;27;20178;-83
2021/01/05 10:32:59;;;;;;;6.97;5.37;;;6.00;99.90;;;;;;5138356;28;20153;-81
2021/01/05 10:35:25;;;;;;;9.60;6.40;;;6.10;99.90;;;;;;5128886;27;20918;-83
2021/01/05 10:37:51;;;;;;;7.30;4.90;;;6.70;99.90;;;;;;5108492;28;20241;-82
2021/01/05 10:40:20;;;;;;;7.03;6.13;;;7.10;99.90;;;;;;5124907;28;20177;-83
2021/01/05 10:42:48;;;;;;;8.13;5.27;;;7.40;99.90;;;;;;5126736;28;20374;-83
2021/01/05 10:45:19;;;;;;;6.07;4.00;;;7.40;99.90;;;;;;5124223;28;20431;-83
2021/01/05 10:47:46;;;;;;;5.00;4.60;;;6.20;99.90;;;;;;5102979;28;20476;-83
2021/01/05 10:50:15;;;;;;;7.63;6.27;;;5.70;99.90;;;;;;5126328;28;20871;-83
2021/01/05 10:52:41;;;;;;;5.93;5.27;;;5.80;99.90;;;;;;5119919;27;20409;-82
2021/01/05 10:55:07;;;;;;;10.40;6.97;;;6.10;99.90;;;;;;5147595;27;20773;-83
2021/01/05 10:57:33;;;;;;;10.67;6.23;;;6.30;99.90;;;;;;5112651;28;20166;-83
2021/01/05 10:59:59;;;;;;;8.57;6.70;;;6.40;99.90;;;;;;5126859;28;20443;-83
2021/01/05 11:02:25;;;;;;;5.00;4.50;;;6.60;99.90;;;;;;5124259;28;20505;-83
2021/01/05 11:04:51;;;;;;;11.50;6.03;;;5.90;99.90;;;;;;5104298;28;20180;-83
2021/01/05 11:07:17;;;;;;;9.57;7.20;;;6.20;99.90;;;;;;5101472;28;20427;-84
2021/01/05 11:09:45;;;;;;;15.33;9.70;;;6.20;99.90;;;;;;5125778;28;20638;-83
2021/01/05 11:12:18;;;;;;;9.43;6.23;;;6.50;99.90;;;;;;5104042;28;20424;-83
2021/01/05 11:14:44;;;;;;;12.70;6.73;;;6.70;99.90;;;;;;5080696;28;20471;-83
2021/01/05 11:17:10;;;;;;;6.67;5.07;;;6.80;99.90;;;;;;5093445;28;20441;-84
2021/01/05 11:19:37;;;;;;;21.87;13.83;;;7.00;99.90;;;;;;5101685;28;20201;-82
2021/01/05 11:22:06;;;;;;;8.87;5.50;;;7.20;99.90;;;;;;5063274;28;20190;-82
2021/01/05 11:24:35;;;;;;;7.73;5.80;;;7.20;99.90;;;;;;5096001;28;20417;-81
2021/01/05 11:27:02;;;;;;;8.07;6.23;;;7.20;99.90;;;;;;5082571;28;20463;-83
2021/01/05 11:29:28;;;;;;;5.97;5.27;;;7.10;99.90;;;;;;5099468;28;20367;-82
2021/01/05 11:32:00;;;;;;;6.30;5.67;;;7.00;99.90;;;;;;5103048;28;20403;-82
2021/01/05 11:34:26;;;;;;;7.93;5.50;;;7.20;99.90;;;;;;5082571;28;20221;-82
2021/01/05 11:37:00;;;;;;;7.60;5.50;;;8.40;99.90;;;;;;5101377;28;20428;-81
2021/01/05 11:39:25;;;;;;;6.17;5.30;;;8.40;99.90;;;;;;5102326;28;20496;-82
2021/01/05 11:41:57;;;;;;;5.37;4.60;;;8.70;99.90;;;;;;5099643;28;20942;-81
2021/01/05 11:44:23;;;;;;;7.23;6.17;;;8.60;99.90;;;;;;5091241;28;20175;-83
2021/01/05 11:46:49;;;;;;;7.73;6.27;;;9.60;99.90;;;;;;5123780;28;20472;-83
2021/01/05 11:49:15;;;;;;;6.60;5.53;;;9.90;99.90;;;;;;5111765;28;20406;-83
2021/01/05 11:51:41;;;;;;;6.60;5.90;;;9.70;99.90;;;;;;5129032;28;20449;-83
2021/01/05 11:54:07;;;;;;;6.17;5.47;;;8.70;99.90;;;;;;5111671;28;20185;-83
2021/01/05 11:56:34;;;;;;;7.20;5.60;;;8.80;99.90;;;;;;5129177;28;20478;-83
2021/01/05 11:59:03;;;;;;;6.90;5.50;;;9.00;99.90;;;;;;5130990;28;20162;-84
2021/01/05 12:01:36;;;;;;;7.60;6.30;;;7.70;99.90;;;;;;5122608;28;20472;-83
2021/01/05 12:04:03;;;;;;;11.90;7.00;;;7.70;99.90;;;;;;5140038;28;20390;-83
2021/01/05 12:06:32;;;;;;;7.37;5.50;;;7.30;99.90;;;;;;5140817;28;20358;-83
2021/01/05 12:08:59;;;;;;;9.10;6.70;;;7.20;99.90;;;;;;5111146;28;20388;-83
2021/01/05 12:11:28;;;;;;;7.77;6.00;;;7.10;99.90;;;;;;5140857;28;20422;-83
2021/01/05 12:13:54;;;;;;;11.83;7.00;;;6.70;99.90;;;;;;5142012;27;20400;-81
2021/01/05 12:16:27;;;;;;;8.00;6.10;;;6.80;99.90;;;;;;5106735;28;20405;-82
2021/01/05 12:18:55;;;;;;;8.03;7.10;;;7.00;99.90;;;;;;5140660;28;20398;-83
2021/01/05 12:21:26;;;;;;;5.83;5.27;;;6.80;99.90;;;;;;5138009;28;20759;-83
2021/01/05 12:23:53;;;;;;;12.10;7.73;;;6.80;99.90;;;;;;5141121;27;20732;-82
2021/01/05 12:26:30;;;;;;;10.43;7.20;;;6.60;99.90;;;;;;5141438;27;20419;-82
2021/01/05 12:28:56;;;;;;;14.83;6.87;;;6.50;99.90;;;;;;5141671;28;20444;-82
2021/01/05 12:31:23;;;;;;;10.03;6.43;;;6.40;99.90;;;;;;5141360;27;20427;-83
2021/01/05 12:33:49;;;;;;;10.20;7.20;;;6.50;99.90;;;;;;5123759;28;20393;-81
2021/01/05 12:36:31;;;;;;;8.10;7.10;;;6.60;99.90;;;;;;5123916;28;20397;-80
2021/01/05 12:38:58;;;;;;;10.97;7.37;;;6.60;99.90;;;;;;5132228;28;20173;-82
2021/01/05 12:41:33;;;;;;;8.27;5.40;;;6.60;99.90;;;;;;5110074;28;20438;-82
2021/01/05 12:44:04;;;;;;;8.00;5.67;;;6.70;99.90;;;;;;5127521;28;20410;-82
2021/01/05 12:46:37;;;;;;;9.93;6.87;;;6.60;99.90;;;;;;5093002;28;20808;-82
2021/01/05 12:49:04;;;;;;;8.13;6.87;;;6.50;99.90;;;;;;5091214;28;20378;-82
2021/01/05 12:51:32;;;;;;;8.37;5.80;;;6.40;99.90;;;;;;5123216;28;20394;-82
2021/01/05 12:53:59;;;;;;;8.90;6.07;;;6.50;99.90;;;;;;5107034;28;20418;-83
2021/01/05 12:56:26;;;;;;;10.43;6.60;;;6.40;99.90;;;;;;5124305;28;20472;-81
2021/01/05 12:58:52;;;;;;;6.40;5.60;;;6.40;99.90;;;;;;5126818;28;20393;-82
2021/01/05 13:01:19;;;;;;;6.83;4.60;;;6.40;99.90;;;;;;5125415;28;20381;-82
2021/01/05 13:03:46;;;;;;;6.70;4.90;;;6.20;99.90;;;;;;5125021;28;20363;-80
2021/01/05 13:06:13;;;;;;;8.10;5.47;;;6.10;99.90;;;;;;5108120;28;20392;-81
2021/01/05 13:08:41;;;;;;;10.03;6.27;;;5.80;99.90;;;;;;5107865;28;20399;-82
2021/01/05 13:11:08;;;;;;;4.33;3.93;;;5.90;99.90;;;;;;5125801;28;20840;-82
2021/01/05 13:13:34;;;;;;;5.83;5.23;;;5.50;99.90;;;;;;5126948;28;20907;-81